sensor_id;sensor_type;location;lat;lon;timestamp;P1;durP1;ratioP1;P2;durP2;ratioP2
4821;SDS011;2425;47.794;13.068;2022-12-20T00:02:20;9.57;;;8.67;;
4821;SDS011;2425;47.794;13.068;2022-12-20T00:04:47;11.50;;;10.30;;
4821;SDS011;2425;47.794;13.068;2022-12-20T00:07:14;14.90;;;9.20;;
4821;SDS011;2425;47.794;13.068;2022-12-20T00:09:41;9.27;;;8.37;;
4821;SDS011;2425;47.794;13.068;2022-12-20T00:12:07;9.10;;;8.20;;
4821;SDS011;2425;47.794;13.068;2022-12-20T00:14:34;10.87;;;8.53;;
4821;SDS011;2425;47.794;13.068;2022-12-20T00:17:02;9.77;;;8.70;;
4821;SDS011;2425;47.794;13.068;2022-12-20T00:19:29;8.33;;;7.63;;
4821;SDS011;2425;47.794;13.068;2022-12-20T00:21:56;9.80;;;8.90;;
4821;SDS011;2425;47.794;13.068;2022-12-20T00:24:22;9.07;;;8.20;;
4821;SDS011;2425;47.794;13.068;2022-12-20T00:26:49;8.40;;;7.60;;
4821;SDS011;2425;47.794;13.068;2022-12-20T00:29:16;9.27;;;8.43;;
4821;SDS011;2425;47.794;13.068;2022-12-20T00:31:42;8.03;;;7.23;;
4821;SDS011;2425;47.794;13.068;2022-12-20T00:34:10;10.00;;;8.20;;
4821;SDS011;2425;47.794;13.068;2022-12-20T00:36:38;9.80;;;7.77;;
4821;SDS011;2425;47.794;13.068;2022-12-20T00:39:05;8.10;;;7.30;;
4821;SDS011;2425;47.794;13.068;2022-12-20T00:41:32;9.20;;;8.10;;
4821;SDS011;2425;47.794;13.068;2022-12-20T00:44:00;7.87;;;7.20;;
4821;SDS011;2425;47.794;13.068;2022-12-20T00:46:27;8.00;;;7.20;;
4821;SDS011;2425;47.794;13.068;2022-12-20T00:48:54;7.53;;;6.93;;
4821;SDS011;2425;47.794;13.068;2022-12-20T00:51:24;8.13;;;7.40;;
4821;SDS011;2425;47.794;13.068;2022-12-20T00:53:51;10.23;;;7.40;;
4821;SDS011;2425;47.794;13.068;2022-12-20T00:56:18;7.57;;;6.97;;
4821;SDS011;2425;47.794;13.068;2022-12-20T00:58:45;9.40;;;7.63;;
4821;SDS011;2425;47.794;13.068;2022-12-20T01:01:17;7.47;;;6.70;;
4821;SDS011;2425;47.794;13.068;2022-12-20T01:03:45;8.50;;;6.33;;
4821;SDS011;2425;47.794;13.068;2022-12-20T01:06:11;7.47;;;6.77;;
4821;SDS011;2425;47.794;13.068;2022-12-20T01:08:40;7.00;;;6.50;;
4821;SDS011;2425;47.794;13.068;2022-12-20T01:11:07;7.57;;;6.87;;
4821;SDS011;2425;47.794;13.068;2022-12-20T01:13:35;7.07;;;6.40;;
4821;SDS011;2425;47.794;13.068;2022-12-20T01:16:04;6.50;;;5.90;;
4821;SDS011;2425;47.794;13.068;2022-12-20T01:18:31;7.00;;;6.40;;
4821;SDS011;2425;47.794;13.068;2022-12-20T01:21:02;6.83;;;6.23;;
4821;SDS011;2425;47.794;13.068;2022-12-20T01:23:29;6.70;;;6.13;;
4821;SDS011;2425;47.794;13.068;2022-12-20T01:25:58;7.20;;;6.60;;
4821;SDS011;2425;47.794;13.068;2022-12-20T01:28:25;7.07;;;6.50;;
4821;SDS011;2425;47.794;13.068;2022-12-20T01:30:53;6.47;;;5.93;;
4821;SDS011;2425;47.794;13.068;2022-12-20T01:33:19;7.27;;;6.10;;
4821;SDS011;2425;47.794;13.068;2022-12-20T01:35:56;6.07;;;5.50;;
4821;SDS011;2425;47.794;13.068;2022-12-20T01:38:23;6.80;;;6.20;;
4821;SDS011;2425;47.794;13.068;2022-12-20T01:40:50;6.63;;;6.03;;
4821;SDS011;2425;47.794;13.068;2022-12-20T01:43:19;5.93;;;5.50;;
4821;SDS011;2425;47.794;13.068;2022-12-20T01:45:46;8.23;;;6.53;;
4821;SDS011;2425;47.794;13.068;2022-12-20T01:48:13;6.47;;;5.87;;
4821;SDS011;2425;47.794;13.068;2022-12-20T01:50:43;7.20;;;6.50;;
4821;SDS011;2425;47.794;13.068;2022-12-20T01:53:10;6.27;;;5.77;;
4821;SDS011;2425;47.794;13.068;2022-12-20T01:55:37;5.87;;;5.47;;
4821;SDS011;2425;47.794;13.068;2022-12-20T01:58:04;6.20;;;5.70;;
4821;SDS011;2425;47.794;13.068;2022-12-20T02:00:34;5.60;;;5.20;;
4821;SDS011;2425;47.794;13.068;2022-12-20T02:03:02;10.30;;;5.93;;
4821;SDS011;2425;47.794;13.068;2022-12-20T02:05:36;6.50;;;5.90;;
4821;SDS011;2425;47.794;13.068;2022-12-20T02:08:04;5.70;;;5.20;;
4821;SDS011;2425;47.794;13.068;2022-12-20T02:10:34;5.77;;;5.33;;
4821;SDS011;2425;47.794;13.068;2022-12-20T02:13:11;6.63;;;6.03;;
4821;SDS011;2425;47.794;13.068;2022-12-20T02:15:44;6.47;;;5.97;;
4821;SDS011;2425;47.794;13.068;2022-12-20T02:18:15;6.13;;;5.63;;
4821;SDS011;2425;47.794;13.068;2022-12-20T02:23:52;6.70;;;6.10;;
4821;SDS011;2425;47.794;13.068;2022-12-20T02:26:54;5.67;;;5.23;;
4821;SDS011;2425;47.794;13.068;2022-12-20T02:29:34;6.50;;;6.00;;
4821;SDS011;2425;47.794;13.068;2022-12-20T02:32:06;6.30;;;5.70;;
4821;SDS011;2425;47.794;13.068;2022-12-20T02:34:35;6.03;;;5.63;;
4821;SDS011;2425;47.794;13.068;2022-12-20T02:37:03;6.10;;;5.60;;
4821;SDS011;2425;47.794;13.068;2022-12-20T02:39:30;5.30;;;4.90;;
4821;SDS011;2425;47.794;13.068;2022-12-20T02:41:57;5.70;;;5.20;;
4821;SDS011;2425;47.794;13.068;2022-12-20T02:44:27;6.23;;;5.73;;
4821;SDS011;2425;47.794;13.068;2022-12-20T02:47:15;6.60;;;6.00;;
4821;SDS011;2425;47.794;13.068;2022-12-20T02:49:46;5.63;;;5.20;;
4821;SDS011;2425;47.794;13.068;2022-12-20T02:52:14;6.70;;;6.10;;
4821;SDS011;2425;47.794;13.068;2022-12-20T02:54:42;6.30;;;5.70;;
4821;SDS011;2425;47.794;13.068;2022-12-20T02:57:10;6.03;;;5.53;;
4821;SDS011;2425;47.794;13.068;2022-12-20T02:59:40;6.47;;;5.87;;
4821;SDS011;2425;47.794;13.068;2022-12-20T03:02:08;6.10;;;5.63;;
4821;SDS011;2425;47.794;13.068;2022-12-20T03:04:38;5.80;;;5.30;;
4821;SDS011;2425;47.794;13.068;2022-12-20T03:07:06;5.43;;;5.00;;
4821;SDS011;2425;47.794;13.068;2022-12-20T03:09:35;6.00;;;5.40;;
4821;SDS011;2425;47.794;13.068;2022-12-20T03:12:03;6.47;;;5.87;;
4821;SDS011;2425;47.794;13.068;2022-12-20T03:14:30;5.93;;;5.43;;
4821;SDS011;2425;47.794;13.068;2022-12-20T03:16:57;6.70;;;6.10;;
4821;SDS011;2425;47.794;13.068;2022-12-20T03:19:24;5.80;;;5.30;;
4821;SDS011;2425;47.794;13.068;2022-12-20T03:21:52;6.20;;;5.60;;
4821;SDS011;2425;47.794;13.068;2022-12-20T03:24:18;6.17;;;5.57;;
4821;SDS011;2425;47.794;13.068;2022-12-20T03:26:45;5.80;;;5.30;;
4821;SDS011;2425;47.794;13.068;2022-12-20T03:29:12;5.87;;;5.37;;
4821;SDS011;2425;47.794;13.068;2022-12-20T03:31:39;5.70;;;5.20;;
4821;SDS011;2425;47.794;13.068;2022-12-20T03:34:06;5.80;;;5.30;;
4821;SDS011;2425;47.794;13.068;2022-12-20T03:36:32;5.67;;;5.27;;
4821;SDS011;2425;47.794;13.068;2022-12-20T03:39:00;6.67;;;6.13;;
4821;SDS011;2425;47.794;13.068;2022-12-20T03:41:27;6.37;;;5.77;;
4821;SDS011;2425;47.794;13.068;2022-12-20T03:43:54;6.70;;;6.10;;
4821;SDS011;2425;47.794;13.068;2022-12-20T03:46:21;5.70;;;5.27;;
4821;SDS011;2425;47.794;13.068;2022-12-20T03:48:47;5.50;;;5.10;;
4821;SDS011;2425;47.794;13.068;2022-12-20T03:51:14;6.20;;;5.60;;
4821;SDS011;2425;47.794;13.068;2022-12-20T03:53:41;4.90;;;4.50;;
4821;SDS011;2425;47.794;13.068;2022-12-20T03:56:09;5.70;;;5.20;;
4821;SDS011;2425;47.794;13.068;2022-12-20T03:58:36;6.03;;;5.47;;
4821;SDS011;2425;47.794;13.068;2022-12-20T04:01:14;5.40;;;5.00;;
4821;SDS011;2425;47.794;13.068;2022-12-20T04:03:42;6.50;;;5.90;;
4821;SDS011;2425;47.794;13.068;2022-12-20T04:06:09;6.50;;;5.90;;
4821;SDS011;2425;47.794;13.068;2022-12-20T04:08:36;6.20;;;5.60;;
4821;SDS011;2425;47.794;13.068;2022-12-20T04:11:03;5.40;;;5.00;;
4821;SDS011;2425;47.794;13.068;2022-12-20T04:13:43;6.00;;;5.60;;
4821;SDS011;2425;47.794;13.068;2022-12-20T04:16:10;6.50;;;5.90;;
4821;SDS011;2425;47.794;13.068;2022-12-20T04:18:37;5.47;;;4.97;;
4821;SDS011;2425;47.794;13.068;2022-12-20T04:21:04;6.13;;;5.53;;
4821;SDS011;2425;47.794;13.068;2022-12-20T04:23:31;6.63;;;6.03;;
4821;SDS011;2425;47.794;13.068;2022-12-20T04:25:58;6.27;;;5.70;;
4821;SDS011;2425;47.794;13.068;2022-12-20T04:28:25;5.40;;;5.00;;
4821;SDS011;2425;47.794;13.068;2022-12-20T04:30:53;6.57;;;5.90;;
4821;SDS011;2425;47.794;13.068;2022-12-20T04:33:20;6.43;;;5.80;;
4821;SDS011;2425;47.794;13.068;2022-12-20T04:35:47;6.77;;;5.80;;
4821;SDS011;2425;47.794;13.068;2022-12-20T04:38:14;6.47;;;5.87;;
4821;SDS011;2425;47.794;13.068;2022-12-20T04:40:41;7.03;;;6.37;;
4821;SDS011;2425;47.794;13.068;2022-12-20T04:43:08;6.20;;;5.70;;
4821;SDS011;2425;47.794;13.068;2022-12-20T04:45:34;5.97;;;5.40;;
4821;SDS011;2425;47.794;13.068;2022-12-20T04:48:03;6.07;;;5.57;;
4821;SDS011;2425;47.794;13.068;2022-12-20T04:50:30;6.50;;;5.90;;
4821;SDS011;2425;47.794;13.068;2022-12-20T04:52:57;7.37;;;6.53;;
4821;SDS011;2425;47.794;13.068;2022-12-20T04:55:45;6.77;;;6.07;;
4821;SDS011;2425;47.794;13.068;2022-12-20T04:58:20;6.87;;;6.17;;
4821;SDS011;2425;47.794;13.068;2022-12-20T05:00:47;9.20;;;6.40;;
4821;SDS011;2425;47.794;13.068;2022-12-20T05:03:15;6.43;;;5.83;;
4821;SDS011;2425;47.794;13.068;2022-12-20T05:05:42;6.43;;;5.83;;
4821;SDS011;2425;47.794;13.068;2022-12-20T05:08:18;5.43;;;4.97;;
4821;SDS011;2425;47.794;13.068;2022-12-20T05:10:57;6.00;;;5.50;;
4821;SDS011;2425;47.794;13.068;2022-12-20T05:13:24;7.03;;;5.97;;
4821;SDS011;2425;47.794;13.068;2022-12-20T05:15:51;5.93;;;5.37;;
4821;SDS011;2425;47.794;13.068;2022-12-20T05:18:19;6.67;;;5.87;;
4821;SDS011;2425;47.794;13.068;2022-12-20T05:20:46;5.97;;;5.40;;
4821;SDS011;2425;47.794;13.068;2022-12-20T05:23:33;6.80;;;6.10;;
4821;SDS011;2425;47.794;13.068;2022-12-20T05:26:17;5.60;;;5.10;;
4821;SDS011;2425;47.794;13.068;2022-12-20T05:28:44;6.77;;;6.07;;
4821;SDS011;2425;47.794;13.068;2022-12-20T05:31:10;6.73;;;6.03;;
4821;SDS011;2425;47.794;13.068;2022-12-20T05:33:39;6.53;;;5.83;;
4821;SDS011;2425;47.794;13.068;2022-12-20T05:36:06;6.47;;;5.87;;
4821;SDS011;2425;47.794;13.068;2022-12-20T05:38:33;5.73;;;5.23;;
4821;SDS011;2425;47.794;13.068;2022-12-20T05:41:00;6.60;;;6.00;;
4821;SDS011;2425;47.794;13.068;2022-12-20T05:43:29;6.60;;;5.23;;
4821;SDS011;2425;47.794;13.068;2022-12-20T05:45:55;6.70;;;6.10;;
4821;SDS011;2425;47.794;13.068;2022-12-20T05:48:22;6.13;;;5.63;;
4821;SDS011;2425;47.794;13.068;2022-12-20T05:50:50;5.83;;;5.33;;
4821;SDS011;2425;47.794;13.068;2022-12-20T05:53:17;5.70;;;5.20;;
4821;SDS011;2425;47.794;13.068;2022-12-20T05:55:44;5.80;;;5.30;;
4821;SDS011;2425;47.794;13.068;2022-12-20T05:58:13;5.53;;;5.00;;
4821;SDS011;2425;47.794;13.068;2022-12-20T06:00:40;5.73;;;5.23;;
4821;SDS011;2425;47.794;13.068;2022-12-20T06:03:07;6.43;;;5.60;;
4821;SDS011;2425;47.794;13.068;2022-12-20T06:05:35;5.30;;;4.90;;
4821;SDS011;2425;47.794;13.068;2022-12-20T06:08:04;5.50;;;5.03;;
4821;SDS011;2425;47.794;13.068;2022-12-20T06:10:31;9.60;;;5.57;;
4821;SDS011;2425;47.794;13.068;2022-12-20T06:12:58;5.67;;;5.17;;
4821;SDS011;2425;47.794;13.068;2022-12-20T06:15:26;6.13;;;5.37;;
4821;SDS011;2425;47.794;13.068;2022-12-20T06:17:53;5.77;;;5.27;;
4821;SDS011;2425;47.794;13.068;2022-12-20T06:20:20;5.73;;;5.23;;
4821;SDS011;2425;47.794;13.068;2022-12-20T06:22:46;5.73;;;5.23;;
4821;SDS011;2425;47.794;13.068;2022-12-20T06:25:14;5.30;;;4.87;;
4821;SDS011;2425;47.794;13.068;2022-12-20T06:27:41;5.40;;;4.90;;
4821;SDS011;2425;47.794;13.068;2022-12-20T06:30:09;4.90;;;4.40;;
4821;SDS011;2425;47.794;13.068;2022-12-20T06:32:36;5.47;;;4.97;;
4821;SDS011;2425;47.794;13.068;2022-12-20T06:35:06;5.40;;;4.90;;
4821;SDS011;2425;47.794;13.068;2022-12-20T06:37:33;5.83;;;5.20;;
4821;SDS011;2425;47.794;13.068;2022-12-20T06:40:00;5.63;;;5.07;;
4821;SDS011;2425;47.794;13.068;2022-12-20T06:42:29;5.20;;;4.70;;
4821;SDS011;2425;47.794;13.068;2022-12-20T06:44:55;5.30;;;4.80;;
4821;SDS011;2425;47.794;13.068;2022-12-20T06:47:22;6.13;;;5.53;;
4821;SDS011;2425;47.794;13.068;2022-12-20T06:49:49;6.80;;;5.30;;
4821;SDS011;2425;47.794;13.068;2022-12-20T06:52:16;5.43;;;4.93;;
4821;SDS011;2425;47.794;13.068;2022-12-20T06:54:42;4.67;;;4.20;;
4821;SDS011;2425;47.794;13.068;2022-12-20T06:57:09;5.43;;;4.70;;
4821;SDS011;2425;47.794;13.068;2022-12-20T06:59:37;6.07;;;5.57;;
4821;SDS011;2425;47.794;13.068;2022-12-20T07:02:04;5.00;;;4.50;;
4821;SDS011;2425;47.794;13.068;2022-12-20T07:04:30;5.10;;;4.50;;
4821;SDS011;2425;47.794;13.068;2022-12-20T07:06:57;5.20;;;4.70;;
4821;SDS011;2425;47.794;13.068;2022-12-20T07:09:24;5.50;;;5.00;;
4821;SDS011;2425;47.794;13.068;2022-12-20T07:11:51;4.63;;;4.20;;
4821;SDS011;2425;47.794;13.068;2022-12-20T07:14:17;5.77;;;5.17;;
4821;SDS011;2425;47.794;13.068;2022-12-20T07:16:46;6.97;;;5.27;;
4821;SDS011;2425;47.794;13.068;2022-12-20T07:19:13;5.97;;;4.67;;
4821;SDS011;2425;47.794;13.068;2022-12-20T07:21:40;7.30;;;4.83;;
4821;SDS011;2425;47.794;13.068;2022-12-20T07:24:07;5.20;;;4.70;;
4821;SDS011;2425;47.794;13.068;2022-12-20T07:26:34;24.33;;;6.57;;
4821;SDS011;2425;47.794;13.068;2022-12-20T07:29:01;14.50;;;11.03;;
4821;SDS011;2425;47.794;13.068;2022-12-20T07:31:28;62.03;;;40.97;;
4821;SDS011;2425;47.794;13.068;2022-12-20T07:33:56;38.13;;;25.07;;
4821;SDS011;2425;47.794;13.068;2022-12-20T07:36:22;20.77;;;13.60;;
4821;SDS011;2425;47.794;13.068;2022-12-20T07:38:49;18.20;;;10.20;;
4821;SDS011;2425;47.794;13.068;2022-12-20T07:41:16;11.37;;;8.53;;
4821;SDS011;2425;47.794;13.068;2022-12-20T07:43:43;14.30;;;7.90;;
4821;SDS011;2425;47.794;13.068;2022-12-20T07:46:11;11.30;;;6.97;;
4821;SDS011;2425;47.794;13.068;2022-12-20T07:48:39;12.53;;;8.97;;
4821;SDS011;2425;47.794;13.068;2022-12-20T07:51:08;17.07;;;11.80;;
4821;SDS011;2425;47.794;13.068;2022-12-20T07:53:37;20.13;;;8.40;;
4821;SDS011;2425;47.794;13.068;2022-12-20T07:56:05;15.53;;;6.70;;
4821;SDS011;2425;47.794;13.068;2022-12-20T07:58:33;10.00;;;7.37;;
4821;SDS011;2425;47.794;13.068;2022-12-20T08:01:02;9.83;;;6.87;;
4821;SDS011;2425;47.794;13.068;2022-12-20T08:03:31;7.03;;;6.33;;
4821;SDS011;2425;47.794;13.068;2022-12-20T08:05:59;8.10;;;6.50;;
4821;SDS011;2425;47.794;13.068;2022-12-20T08:08:29;17.23;;;7.63;;
4821;SDS011;2425;47.794;13.068;2022-12-20T08:10:57;15.60;;;6.40;;
4821;SDS011;2425;47.794;13.068;2022-12-20T08:13:24;24.37;;;12.37;;
4821;SDS011;2425;47.794;13.068;2022-12-20T08:15:51;17.33;;;13.37;;
4821;SDS011;2425;47.794;13.068;2022-12-20T08:18:18;18.53;;;11.60;;
4821;SDS011;2425;47.794;13.068;2022-12-20T08:20:44;17.77;;;8.30;;
4821;SDS011;2425;47.794;13.068;2022-12-20T08:23:11;8.70;;;7.40;;
4821;SDS011;2425;47.794;13.068;2022-12-20T08:28:28;11.93;;;7.07;;
4821;SDS011;2425;47.794;13.068;2022-12-20T08:30:59;6.77;;;6.10;;
4821;SDS011;2425;47.794;13.068;2022-12-20T08:33:46;8.23;;;6.33;;
4821;SDS011;2425;47.794;13.068;2022-12-20T08:36:25;7.70;;;6.90;;
4821;SDS011;2425;47.794;13.068;2022-12-20T08:38:53;9.60;;;5.60;;
4821;SDS011;2425;47.794;13.068;2022-12-20T08:41:21;9.50;;;8.40;;
4821;SDS011;2425;47.794;13.068;2022-12-20T08:43:48;28.20;;;20.80;;
4821;SDS011;2425;47.794;13.068;2022-12-20T08:46:14;16.30;;;10.30;;
4821;SDS011;2425;47.794;13.068;2022-12-20T08:48:41;12.53;;;8.23;;
4821;SDS011;2425;47.794;13.068;2022-12-20T08:51:09;10.30;;;7.80;;
4821;SDS011;2425;47.794;13.068;2022-12-20T08:53:36;7.67;;;6.87;;
4821;SDS011;2425;47.794;13.068;2022-12-20T08:56:04;8.27;;;6.67;;
4821;SDS011;2425;47.794;13.068;2022-12-20T08:58:32;23.43;;;13.60;;
4821;SDS011;2425;47.794;13.068;2022-12-20T09:00:59;17.47;;;11.63;;
4821;SDS011;2425;47.794;13.068;2022-12-20T09:03:28;14.43;;;12.07;;
4821;SDS011;2425;47.794;13.068;2022-12-20T09:05:55;15.90;;;9.20;;
4821;SDS011;2425;47.794;13.068;2022-12-20T09:08:22;11.03;;;8.07;;
4821;SDS011;2425;47.794;13.068;2022-12-20T09:10:48;14.20;;;7.50;;
4821;SDS011;2425;47.794;13.068;2022-12-20T09:13:16;7.17;;;6.47;;
4821;SDS011;2425;47.794;13.068;2022-12-20T09:15:44;9.20;;;6.83;;
4821;SDS011;2425;47.794;13.068;2022-12-20T09:18:11;8.93;;;7.20;;
4821;SDS011;2425;47.794;13.068;2022-12-20T09:20:40;8.57;;;7.40;;
4821;SDS011;2425;47.794;13.068;2022-12-20T09:23:08;16.77;;;6.40;;
4821;SDS011;2425;47.794;13.068;2022-12-20T09:25:35;10.67;;;6.70;;
4821;SDS011;2425;47.794;13.068;2022-12-20T09:28:02;6.90;;;6.20;;
4821;SDS011;2425;47.794;13.068;2022-12-20T09:30:29;7.40;;;6.57;;
4821;SDS011;2425;47.794;13.068;2022-12-20T09:32:57;10.10;;;7.03;;
4821;SDS011;2425;47.794;13.068;2022-12-20T09:35:24;8.37;;;6.87;;
4821;SDS011;2425;47.794;13.068;2022-12-20T09:37:51;11.70;;;7.00;;
4821;SDS011;2425;47.794;13.068;2022-12-20T09:40:18;9.90;;;6.93;;
4821;SDS011;2425;47.794;13.068;2022-12-20T09:42:47;11.40;;;7.30;;
4821;SDS011;2425;47.794;13.068;2022-12-20T09:45:18;6.53;;;5.93;;
4821;SDS011;2425;47.794;13.068;2022-12-20T09:47:49;7.17;;;6.47;;
4821;SDS011;2425;47.794;13.068;2022-12-20T09:50:18;10.30;;;6.90;;
4821;SDS011;2425;47.794;13.068;2022-12-20T09:52:49;11.07;;;7.30;;
4821;SDS011;2425;47.794;13.068;2022-12-20T09:55:23;7.10;;;6.33;;
4821;SDS011;2425;47.794;13.068;2022-12-20T09:57:56;6.37;;;5.80;;
4821;SDS011;2425;47.794;13.068;2022-12-20T10:00:29;7.00;;;6.30;;
4821;SDS011;2425;47.794;13.068;2022-12-20T10:03:01;7.23;;;6.50;;
4821;SDS011;2425;47.794;13.068;2022-12-20T10:05:31;7.90;;;6.37;;
4821;SDS011;2425;47.794;13.068;2022-12-20T10:08:02;6.23;;;5.63;;
4821;SDS011;2425;47.794;13.068;2022-12-20T10:10:38;6.83;;;6.13;;
4821;SDS011;2425;47.794;13.068;2022-12-20T10:13:17;6.67;;;5.63;;
4821;SDS011;2425;47.794;13.068;2022-12-20T10:15:49;7.47;;;6.17;;
4821;SDS011;2425;47.794;13.068;2022-12-20T10:18:22;5.90;;;5.30;;
4821;SDS011;2425;47.794;13.068;2022-12-20T10:20:58;9.93;;;6.37;;
4821;SDS011;2425;47.794;13.068;2022-12-20T10:23:29;13.30;;;6.37;;
4821;SDS011;2425;47.794;13.068;2022-12-20T10:26:00;6.60;;;6.00;;
4821;SDS011;2425;47.794;13.068;2022-12-20T10:28:28;6.50;;;5.57;;
4821;SDS011;2425;47.794;13.068;2022-12-20T10:30:57;11.60;;;5.43;;
4821;SDS011;2425;47.794;13.068;2022-12-20T10:33:25;7.00;;;4.83;;
4821;SDS011;2425;47.794;13.068;2022-12-20T10:35:53;10.20;;;5.90;;
4821;SDS011;2425;47.794;13.068;2022-12-20T10:38:21;7.17;;;6.47;;
4821;SDS011;2425;47.794;13.068;2022-12-20T10:40:58;11.37;;;8.63;;
4821;SDS011;2425;47.794;13.068;2022-12-20T10:43:25;15.53;;;10.17;;
4821;SDS011;2425;47.794;13.068;2022-12-20T10:45:54;11.00;;;7.27;;
4821;SDS011;2425;47.794;13.068;2022-12-20T10:48:25;10.70;;;7.13;;
4821;SDS011;2425;47.794;13.068;2022-12-20T10:50:55;10.47;;;7.00;;
4821;SDS011;2425;47.794;13.068;2022-12-20T10:53:24;7.40;;;6.00;;
4821;SDS011;2425;47.794;13.068;2022-12-20T10:55:51;14.23;;;6.90;;
4821;SDS011;2425;47.794;13.068;2022-12-20T10:58:30;6.40;;;5.80;;
4821;SDS011;2425;47.794;13.068;2022-12-20T11:01:02;8.07;;;5.60;;
4821;SDS011;2425;47.794;13.068;2022-12-20T11:03:31;7.07;;;6.17;;
4821;SDS011;2425;47.794;13.068;2022-12-20T11:05:58;7.00;;;5.07;;
4821;SDS011;2425;47.794;13.068;2022-12-20T11:08:28;21.83;;;6.23;;
4821;SDS011;2425;47.794;13.068;2022-12-20T11:13:42;7.93;;;7.13;;
4821;SDS011;2425;47.794;13.068;2022-12-20T11:18:54;13.40;;;10.57;;
4821;SDS011;2425;47.794;13.068;2022-12-20T11:21:29;16.00;;;8.70;;
4821;SDS011;2425;47.794;13.068;2022-12-20T11:24:04;10.03;;;7.03;;
4821;SDS011;2425;47.794;13.068;2022-12-20T11:26:40;11.10;;;6.80;;
4821;SDS011;2425;47.794;13.068;2022-12-20T11:29:17;7.50;;;6.30;;
4821;SDS011;2425;47.794;13.068;2022-12-20T11:31:51;7.33;;;6.60;;
4821;SDS011;2425;47.794;13.068;2022-12-20T11:34:27;6.13;;;5.53;;
4821;SDS011;2425;47.794;13.068;2022-12-20T11:37:05;10.10;;;7.10;;
4821;SDS011;2425;47.794;13.068;2022-12-20T11:39:44;14.83;;;6.13;;
4821;SDS011;2425;47.794;13.068;2022-12-20T11:42:39;7.00;;;6.30;;
4821;SDS011;2425;47.794;13.068;2022-12-20T11:45:13;7.10;;;6.40;;
4821;SDS011;2425;47.794;13.068;2022-12-20T11:47:54;11.27;;;5.70;;
4821;SDS011;2425;47.794;13.068;2022-12-20T11:53:22;11.23;;;7.63;;
4821;SDS011;2425;47.794;13.068;2022-12-20T11:55:53;19.43;;;10.83;;
4821;SDS011;2425;47.794;13.068;2022-12-20T11:58:25;14.03;;;10.87;;
4821;SDS011;2425;47.794;13.068;2022-12-20T12:00:55;15.20;;;10.33;;
4821;SDS011;2425;47.794;13.068;2022-12-20T12:03:27;17.70;;;9.10;;
4821;SDS011;2425;47.794;13.068;2022-12-20T12:05:57;15.87;;;12.00;;
4821;SDS011;2425;47.794;13.068;2022-12-20T12:08:27;26.50;;;9.40;;
4821;SDS011;2425;47.794;13.068;2022-12-20T12:10:58;15.57;;;8.87;;
4821;SDS011;2425;47.794;13.068;2022-12-20T12:13:27;41.63;;;8.67;;
4821;SDS011;2425;47.794;13.068;2022-12-20T12:15:57;18.10;;;9.67;;
4821;SDS011;2425;47.794;13.068;2022-12-20T12:18:27;13.13;;;9.70;;
4821;SDS011;2425;47.794;13.068;2022-12-20T12:20:56;20.03;;;10.00;;
4821;SDS011;2425;47.794;13.068;2022-12-20T12:23:30;14.03;;;8.60;;
4821;SDS011;2425;47.794;13.068;2022-12-20T12:26:03;13.10;;;8.83;;
4821;SDS011;2425;47.794;13.068;2022-12-20T12:28:31;12.60;;;7.97;;
4821;SDS011;2425;47.794;13.068;2022-12-20T12:30:59;11.30;;;7.03;;
4821;SDS011;2425;47.794;13.068;2022-12-20T12:33:33;12.40;;;7.60;;
4821;SDS011;2425;47.794;13.068;2022-12-20T12:36:12;24.70;;;7.80;;
4821;SDS011;2425;47.794;13.068;2022-12-20T12:38:56;10.40;;;7.60;;
4821;SDS011;2425;47.794;13.068;2022-12-20T12:41:52;11.57;;;8.47;;
4821;SDS011;2425;47.794;13.068;2022-12-20T12:44:34;14.43;;;7.50;;
4821;SDS011;2425;47.794;13.068;2022-12-20T12:47:04;9.87;;;7.80;;
4821;SDS011;2425;47.794;13.068;2022-12-20T12:49:36;10.73;;;8.63;;
4821;SDS011;2425;47.794;13.068;2022-12-20T12:52:04;12.00;;;9.30;;
4821;SDS011;2425;47.794;13.068;2022-12-20T12:54:33;23.07;;;10.77;;
4821;SDS011;2425;47.794;13.068;2022-12-20T12:57:03;13.93;;;9.83;;
4821;SDS011;2425;47.794;13.068;2022-12-20T12:59:43;11.23;;;9.70;;
4821;SDS011;2425;47.794;13.068;2022-12-20T13:02:21;12.63;;;9.93;;
4821;SDS011;2425;47.794;13.068;2022-12-20T13:04:52;12.20;;;9.93;;
4821;SDS011;2425;47.794;13.068;2022-12-20T13:07:25;16.37;;;10.10;;
4821;SDS011;2425;47.794;13.068;2022-12-20T13:09:53;16.40;;;11.10;;
4821;SDS011;2425;47.794;13.068;2022-12-20T13:18:21;14.73;;;9.63;;
4821;SDS011;2425;47.794;13.068;2022-12-20T13:27:02;16.73;;;12.27;;
4821;SDS011;2425;47.794;13.068;2022-12-20T13:29:58;33.27;;;24.10;;
4821;SDS011;2425;47.794;13.068;2022-12-20T13:36:11;33.50;;;17.70;;
4821;SDS011;2425;47.794;13.068;2022-12-20T13:38:59;20.17;;;14.00;;
4821;SDS011;2425;47.794;13.068;2022-12-20T13:41:36;18.10;;;13.73;;
4821;SDS011;2425;47.794;13.068;2022-12-20T13:44:09;16.73;;;13.47;;
4821;SDS011;2425;47.794;13.068;2022-12-20T13:46:48;15.70;;;11.47;;
4821;SDS011;2425;47.794;13.068;2022-12-20T13:49:20;24.50;;;13.20;;
4821;SDS011;2425;47.794;13.068;2022-12-20T13:51:49;14.60;;;12.07;;
4821;SDS011;2425;47.794;13.068;2022-12-20T13:54:33;13.07;;;11.47;;
4821;SDS011;2425;47.794;13.068;2022-12-20T13:57:01;14.87;;;10.93;;
4821;SDS011;2425;47.794;13.068;2022-12-20T13:59:32;24.70;;;10.83;;
4821;SDS011;2425;47.794;13.068;2022-12-20T14:02:02;23.03;;;12.00;;
4821;SDS011;2425;47.794;13.068;2022-12-20T14:04:37;20.53;;;10.87;;
4821;SDS011;2425;47.794;13.068;2022-12-20T14:07:04;18.23;;;11.73;;
4821;SDS011;2425;47.794;13.068;2022-12-20T14:09:32;25.20;;;18.30;;
4821;SDS011;2425;47.794;13.068;2022-12-20T14:12:04;25.63;;;15.97;;
4821;SDS011;2425;47.794;13.068;2022-12-20T14:14:35;21.10;;;14.40;;
4821;SDS011;2425;47.794;13.068;2022-12-20T14:17:22;24.97;;;13.00;;
4821;SDS011;2425;47.794;13.068;2022-12-20T14:20:06;18.90;;;13.07;;
4821;SDS011;2425;47.794;13.068;2022-12-20T14:22:39;17.70;;;11.90;;
4821;SDS011;2425;47.794;13.068;2022-12-20T14:25:08;14.90;;;12.00;;
4821;SDS011;2425;47.794;13.068;2022-12-20T14:27:35;24.23;;;12.20;;
4821;SDS011;2425;47.794;13.068;2022-12-20T14:30:03;18.27;;;11.37;;
4821;SDS011;2425;47.794;13.068;2022-12-20T14:32:31;12.33;;;10.87;;
4821;SDS011;2425;47.794;13.068;2022-12-20T14:34:58;15.37;;;11.17;;
4821;SDS011;2425;47.794;13.068;2022-12-20T14:37:26;18.60;;;10.53;;
4821;SDS011;2425;47.794;13.068;2022-12-20T14:39:55;20.03;;;13.27;;
4821;SDS011;2425;47.794;13.068;2022-12-20T14:42:26;17.43;;;13.03;;
4821;SDS011;2425;47.794;13.068;2022-12-20T14:45:01;30.63;;;17.13;;
4821;SDS011;2425;47.794;13.068;2022-12-20T14:47:29;21.03;;;13.00;;
4821;SDS011;2425;47.794;13.068;2022-12-20T14:49:58;19.20;;;12.43;;
4821;SDS011;2425;47.794;13.068;2022-12-20T14:52:27;17.73;;;12.43;;
4821;SDS011;2425;47.794;13.068;2022-12-20T14:54:59;20.80;;;11.47;;
4821;SDS011;2425;47.794;13.068;2022-12-20T14:57:28;14.50;;;10.97;;
4821;SDS011;2425;47.794;13.068;2022-12-20T14:59:58;13.57;;;11.00;;
4821;SDS011;2425;47.794;13.068;2022-12-20T15:02:32;14.47;;;11.33;;
4821;SDS011;2425;47.794;13.068;2022-12-20T15:05:07;14.63;;;11.10;;
4821;SDS011;2425;47.794;13.068;2022-12-20T15:07:35;15.73;;;11.00;;
4821;SDS011;2425;47.794;13.068;2022-12-20T15:10:06;14.57;;;9.60;;
4821;SDS011;2425;47.794;13.068;2022-12-20T15:12:33;14.50;;;10.70;;
4821;SDS011;2425;47.794;13.068;2022-12-20T15:15:00;15.73;;;10.33;;
4821;SDS011;2425;47.794;13.068;2022-12-20T15:17:27;17.27;;;10.53;;
4821;SDS011;2425;47.794;13.068;2022-12-20T15:19:53;13.20;;;10.93;;
4821;SDS011;2425;47.794;13.068;2022-12-20T15:22:21;14.50;;;10.50;;
4821;SDS011;2425;47.794;13.068;2022-12-20T15:24:48;15.67;;;11.70;;
4821;SDS011;2425;47.794;13.068;2022-12-20T15:27:15;24.73;;;17.50;;
4821;SDS011;2425;47.794;13.068;2022-12-20T15:29:42;30.07;;;13.27;;
4821;SDS011;2425;47.794;13.068;2022-12-20T15:32:13;19.10;;;14.97;;
4821;SDS011;2425;47.794;13.068;2022-12-20T15:34:41;17.87;;;13.40;;
4821;SDS011;2425;47.794;13.068;2022-12-20T15:37:09;17.57;;;12.43;;
4821;SDS011;2425;47.794;13.068;2022-12-20T15:39:41;19.33;;;11.73;;